createdAt,value
2018-01-28T00:01:43.767Z,3.67
2018-01-28T00:03:47.125Z,4.87
2018-01-28T00:05:50.468Z,4.13
2018-01-28T00:07:53.813Z,4.20
2018-01-28T00:09:57.174Z,4.80
2018-01-28T00:12:01.334Z,4.17
2018-01-28T00:14:04.683Z,4.97
2018-01-28T00:16:07.868Z,4.63
2018-01-28T00:18:11.801Z,3.93
2018-01-28T00:20:14.709Z,4.77
2018-01-28T00:22:18.052Z,4.60
2018-01-28T00:24:21.418Z,4.20
2018-01-28T00:26:24.591Z,4.50
2018-01-28T00:28:27.951Z,4.03
2018-01-28T00:30:31.308Z,3.73
2018-01-28T00:32:35.460Z,4.10
2018-01-28T00:34:38.809Z,4.30
2018-01-28T00:36:42.936Z,3.77
2018-01-28T00:38:46.300Z,4.17
2018-01-28T00:40:49.657Z,3.70
2018-01-28T00:42:53.062Z,5.33
2018-01-28T00:44:56.447Z,3.90
2018-01-28T00:46:59.801Z,4.43
2018-01-28T00:49:03.453Z,3.53
2018-01-28T00:51:06.809Z,4.20
2018-01-28T00:53:10.207Z,4.30
2018-01-28T00:55:13.566Z,4.23
2018-01-28T00:57:16.994Z,3.90
2018-01-28T00:59:20.355Z,5.20
2018-01-28T01:01:23.767Z,4.03
2018-01-28T01:03:27.182Z,5.10
2018-01-28T01:05:30.598Z,3.57
2018-01-28T01:07:33.952Z,4.00
2018-01-28T01:09:37.331Z,4.37
2018-01-28T01:11:40.712Z,4.50
2018-01-28T01:13:44.119Z,3.93
2018-01-28T01:15:47.482Z,4.67
2018-01-28T01:17:51.605Z,4.20
2018-01-28T01:19:54.961Z,3.53
2018-01-28T01:21:58.364Z,3.40
2018-01-28T01:24:01.757Z,4.37
2018-01-28T01:26:06.077Z,3.47
2018-01-28T01:28:10.203Z,5.13
2018-01-28T01:30:13.366Z,3.87
2018-01-28T01:32:16.731Z,3.53
2018-01-28T01:34:20.164Z,4.53
2018-01-28T01:36:23.880Z,4.33
2018-01-28T01:38:27.233Z,4.90
2018-01-28T01:40:30.607Z,3.80
2018-01-28T01:42:33.966Z,3.43
2018-01-28T01:44:37.374Z,3.50
2018-01-28T01:46:40.739Z,3.60
2018-01-28T01:48:44.097Z,3.90
2018-01-28T01:50:47.476Z,3.77
2018-01-28T01:52:51.084Z,4.10
2018-01-28T01:54:54.461Z,4.47
2018-01-28T01:56:57.398Z,4.33
2018-01-28T01:59:00.739Z,4.17
2018-01-28T02:01:04.148Z,3.30
2018-01-28T02:03:07.497Z,4.17
2018-01-28T02:05:10.877Z,3.80
2018-01-28T02:07:14.470Z,3.73
2018-01-28T02:09:17.987Z,4.90
2018-01-28T02:11:21.338Z,3.97
2018-01-28T02:13:24.754Z,3.70
2018-01-28T02:15:28.121Z,3.87
2018-01-28T02:17:31.548Z,3.43
2018-01-28T02:19:34.953Z,3.97
2018-01-28T02:21:38.324Z,3.80
2018-01-28T02:23:41.670Z,3.83
2018-01-28T02:25:45.023Z,3.83
2018-01-28T02:27:48.380Z,3.77
2018-01-28T02:29:51.741Z,3.00
2018-01-28T02:31:55.139Z,3.80
2018-01-28T02:33:58.658Z,3.27
2018-01-28T02:36:02.019Z,3.70
2018-01-28T02:38:05.384Z,3.53
2018-01-28T02:40:08.758Z,5.17
2018-01-28T02:42:11.879Z,3.37
2018-01-28T02:44:14.813Z,3.60
2018-01-28T02:46:18.175Z,3.20
2018-01-28T02:48:21.378Z,3.47
2018-01-28T02:50:24.740Z,3.63
2018-01-28T02:52:28.098Z,3.30
2018-01-28T02:54:31.468Z,3.33
2018-01-28T02:56:34.836Z,3.50
2018-01-28T02:58:38.954Z,3.80
2018-01-28T03:00:42.320Z,3.23
2018-01-28T03:02:45.698Z,2.90
2018-01-28T03:04:49.053Z,3.23
2018-01-28T03:06:52.417Z,3.27
2018-01-28T03:08:55.826Z,3.03
2018-01-28T03:10:59.204Z,3.97
2018-01-28T03:13:02.626Z,3.30
2018-01-28T03:15:06.756Z,3.37
2018-01-28T03:17:10.100Z,3.70
2018-01-28T03:19:13.492Z,3.03
2018-01-28T03:21:16.853Z,3.47
2018-01-28T03:23:20.242Z,2.80
2018-01-28T03:25:23.632Z,3.43
2018-01-28T03:27:26.976Z,3.10
2018-01-28T03:29:30.366Z,3.13
2018-01-28T03:31:33.545Z,3.73
2018-01-28T03:33:36.720Z,3.47
2018-01-28T03:35:39.904Z,3.17
2018-01-28T03:37:44.031Z,3.03
2018-01-28T03:39:47.428Z,3.23
2018-01-28T03:41:50.795Z,3.30
2018-01-28T03:43:54.943Z,3.20
2018-01-28T03:45:58.297Z,2.77
2018-01-28T03:48:01.663Z,3.20
2018-01-28T03:50:05.050Z,2.87
2018-01-28T03:52:08.398Z,3.77
2018-01-28T03:54:11.798Z,2.80
2018-01-28T03:56:15.158Z,2.77
2018-01-28T03:58:19.477Z,3.17
2018-01-28T04:00:23.641Z,3.10
2018-01-28T04:02:27.035Z,2.80
2018-01-28T04:04:30.432Z,3.10
2018-01-28T04:06:33.791Z,3.03
2018-01-28T04:08:37.155Z,2.47
2018-01-28T04:10:41.327Z,2.67
2018-01-28T04:12:44.689Z,3.70
2018-01-28T04:14:48.083Z,3.80
2018-01-28T04:16:53.665Z,3.50
2018-01-28T04:18:57.044Z,2.80
2018-01-28T04:21:00.428Z,2.90
2018-01-28T04:23:03.785Z,3.00
2018-01-28T04:25:07.143Z,2.93
2018-01-28T04:27:10.495Z,3.03
2018-01-28T04:29:13.900Z,2.93
2018-01-28T04:31:17.429Z,2.90
2018-01-28T04:33:21.553Z,3.30
2018-01-28T04:35:25.664Z,2.97
2018-01-28T04:37:29.034Z,2.40
2018-01-28T04:39:33.170Z,2.97
2018-01-28T04:41:36.614Z,3.10
2018-01-28T04:43:39.971Z,2.63
2018-01-28T04:45:43.333Z,3.40
2018-01-28T04:47:47.456Z,3.33
2018-01-28T04:49:50.816Z,2.90
2018-01-28T04:51:54.208Z,3.20
2018-01-28T04:53:57.632Z,3.20
2018-01-28T04:56:00.991Z,3.13
2018-01-28T04:58:04.153Z,3.27
2018-01-28T05:00:07.357Z,3.53
2018-01-28T05:02:20.471Z,3.00
2018-01-28T05:04:23.855Z,2.90
2018-01-28T05:06:27.218Z,2.70
2018-01-28T05:08:30.386Z,3.40
2018-01-28T05:10:33.564Z,3.07
2018-01-28T05:12:36.775Z,2.60
2018-01-28T05:14:40.138Z,2.77
2018-01-28T05:16:43.332Z,2.47
2018-01-28T05:18:47.302Z,2.60
2018-01-28T05:20:50.472Z,2.60
2018-01-28T05:22:53.677Z,2.60
2018-01-28T05:24:57.053Z,3.03
2018-01-28T05:27:00.236Z,2.70
2018-01-28T05:29:04.406Z,2.90
2018-01-28T05:31:07.780Z,2.40
2018-01-28T05:33:11.144Z,2.70
2018-01-28T05:35:14.511Z,2.80
2018-01-28T05:37:17.946Z,2.40
2018-01-28T05:39:21.370Z,2.30
2018-01-28T05:41:24.764Z,2.37
2018-01-28T05:43:28.128Z,2.50
2018-01-28T05:45:31.504Z,2.57
2018-01-28T05:47:34.907Z,2.53
2018-01-28T05:49:38.305Z,3.43
2018-01-28T05:51:41.665Z,2.73
2018-01-28T05:53:45.022Z,2.43
2018-01-28T05:55:48.388Z,2.63
2018-01-28T05:57:52.331Z,2.60
2018-01-28T05:59:55.738Z,2.60
2018-01-28T06:01:58.923Z,2.57
2018-01-28T06:04:02.299Z,2.73
2018-01-28T06:06:05.659Z,2.57
2018-01-28T06:08:09.782Z,2.50
2018-01-28T06:10:13.941Z,2.53
2018-01-28T06:12:17.315Z,2.23
2018-01-28T06:14:20.692Z,3.57
2018-01-28T06:16:24.088Z,2.43
2018-01-28T06:18:27.256Z,2.20
2018-01-28T06:20:30.673Z,2.30
2018-01-28T06:22:34.037Z,1.70
2018-01-28T06:24:38.158Z,2.43
2018-01-28T06:26:41.374Z,2.20
2018-01-28T06:28:44.740Z,2.80
2018-01-28T06:30:48.149Z,2.20
2018-01-28T06:32:51.517Z,1.70
2018-01-28T06:34:54.966Z,2.33
2018-01-28T06:36:59.173Z,3.73
2018-01-28T06:39:02.529Z,2.63
2018-01-28T06:41:05.920Z,2.33
2018-01-28T06:43:09.312Z,2.20
2018-01-28T06:45:12.684Z,2.30
2018-01-28T06:47:16.804Z,2.03
2018-01-28T06:49:20.161Z,2.57
2018-01-28T06:51:23.565Z,2.27
2018-01-28T06:53:27.769Z,2.03
2018-01-28T06:55:31.156Z,2.20
2018-01-28T06:57:34.571Z,2.63
2018-01-28T06:59:37.940Z,2.20
2018-01-28T07:01:41.329Z,1.93
2018-01-28T07:03:44.733Z,3.50
2018-01-28T07:05:48.113Z,1.97
2018-01-28T07:07:51.492Z,1.60
2018-01-28T07:09:54.871Z,2.10
2018-01-28T07:11:58.461Z,2.30
2018-01-28T07:14:01.822Z,2.17
2018-01-28T07:16:05.185Z,1.70
2018-01-28T07:18:08.551Z,2.03
2018-01-28T07:20:11.917Z,1.70
2018-01-28T07:22:15.409Z,2.37
2018-01-28T07:24:18.780Z,2.10
2018-01-28T07:26:22.198Z,2.40
2018-01-28T07:28:25.560Z,3.10
2018-01-28T07:30:29.692Z,2.00
2018-01-28T07:32:33.059Z,1.77
2018-01-28T07:34:36.441Z,1.77
2018-01-28T07:36:39.809Z,1.97
2018-01-28T07:38:43.220Z,1.97
2018-01-28T07:40:46.401Z,1.80
2018-01-28T07:42:49.769Z,1.70
2018-01-28T07:44:53.138Z,1.97
2018-01-28T07:46:56.489Z,2.03
2018-01-28T07:48:59.843Z,2.07
2018-01-28T07:51:03.200Z,2.20
2018-01-28T07:53:06.573Z,1.87
2018-01-28T07:55:10.721Z,2.13
2018-01-28T07:57:13.899Z,1.70
2018-01-28T07:59:17.055Z,1.60
2018-01-28T08:01:21.198Z,1.97
2018-01-28T08:03:24.775Z,1.50
2018-01-28T08:05:28.133Z,1.60
2018-01-28T08:07:31.320Z,1.40
2018-01-28T08:09:34.482Z,1.73
2018-01-28T08:14:41.570Z,1.53
2018-01-28T08:16:44.749Z,1.70
2018-01-28T08:18:48.148Z,1.43
2018-01-28T08:20:51.604Z,1.30
2018-01-28T08:22:54.805Z,1.60
2018-01-28T08:24:58.137Z,1.43
2018-01-28T08:27:18.901Z,1.40
2018-01-28T08:29:24.698Z,1.40
2018-01-28T08:31:28.094Z,1.33
2018-01-28T08:33:31.298Z,1.60
2018-01-28T08:35:34.677Z,1.20
2018-01-28T08:37:38.025Z,1.30
2018-01-28T08:39:41.217Z,1.30
2018-01-28T08:41:44.614Z,1.30
2018-01-28T08:43:48.242Z,1.60
2018-01-28T08:45:51.665Z,1.07
2018-01-28T08:47:55.055Z,1.30
2018-01-28T08:49:58.413Z,1.63
2018-01-28T08:52:01.810Z,1.47
2018-01-28T08:54:05.083Z,1.20
2018-01-28T08:56:08.482Z,1.33
2018-01-28T08:58:11.866Z,1.30
2018-01-28T09:00:15.242Z,2.20
2018-01-28T09:02:18.674Z,1.13
2018-01-28T09:04:22.065Z,1.47
2018-01-28T09:06:25.448Z,1.50
2018-01-28T09:08:28.830Z,1.83
2018-01-28T09:10:32.211Z,1.40
2018-01-28T09:12:35.621Z,1.37
2018-01-28T09:14:39.067Z,1.50
2018-01-28T09:16:43.197Z,1.20
2018-01-28T09:18:46.708Z,1.40
2018-01-28T09:20:50.117Z,2.03
2018-01-28T09:22:53.482Z,1.50
2018-01-28T09:24:56.698Z,1.30
2018-01-28T09:27:00.094Z,2.07
2018-01-28T09:29:03.467Z,1.37
2018-01-28T09:31:06.838Z,1.30
2018-01-28T09:33:10.195Z,1.50
2018-01-28T09:35:13.550Z,1.17
2018-01-28T09:37:16.945Z,1.20
2018-01-28T09:39:20.302Z,1.17
2018-01-28T09:41:23.494Z,1.23
2018-01-28T09:43:27.298Z,1.97
2018-01-28T09:45:30.717Z,1.23
2018-01-28T09:47:34.221Z,1.20
2018-01-28T09:49:37.603Z,1.60
2018-01-28T09:51:41.075Z,1.47
2018-01-28T09:53:44.494Z,1.30
2018-01-28T09:55:47.884Z,1.40
2018-01-28T09:57:51.356Z,1.20
2018-01-28T09:59:54.713Z,1.27
2018-01-28T10:01:58.156Z,2.23
2018-01-28T10:04:01.775Z,1.60
2018-01-28T10:06:05.156Z,1.40
2018-01-28T10:08:08.696Z,1.40
2018-01-28T10:10:12.884Z,1.87
2018-01-28T10:12:16.390Z,1.47
2018-01-28T10:14:20.551Z,1.50
2018-01-28T10:16:23.908Z,1.30
2018-01-28T10:18:28.095Z,1.43
2018-01-28T10:20:32.285Z,1.60
2018-01-28T10:22:35.643Z,1.50
2018-01-28T10:24:39.031Z,1.50
2018-01-28T10:26:42.392Z,1.30
2018-01-28T10:28:46.560Z,1.93
2018-01-28T10:30:49.950Z,1.57
2018-01-28T10:32:53.329Z,1.63
2018-01-28T10:34:56.766Z,1.30
2018-01-28T10:37:00.917Z,0.93
2018-01-28T10:39:04.084Z,1.40
2018-01-28T10:41:09.177Z,1.33
2018-01-28T10:43:12.704Z,1.30
2018-01-28T10:45:16.086Z,1.93
2018-01-28T10:47:19.431Z,1.47
2018-01-28T10:49:22.812Z,1.67
2018-01-28T10:51:26.171Z,1.30
2018-01-28T10:53:29.330Z,1.30
2018-01-28T10:55:32.790Z,1.73
2018-01-28T10:57:36.145Z,1.27
2018-01-28T10:59:40.295Z,1.20
2018-01-28T11:01:43.685Z,1.73
2018-01-28T11:03:47.039Z,1.37
2018-01-28T11:05:51.204Z,1.10
2018-01-28T11:07:54.558Z,1.33
2018-01-28T11:09:57.829Z,1.40
2018-01-28T11:12:01.213Z,1.13
2018-01-28T11:14:04.582Z,1.20
2018-01-28T11:16:07.978Z,2.03
2018-01-28T11:18:11.372Z,1.57
2018-01-28T11:20:14.766Z,1.80
2018-01-28T11:22:18.166Z,1.80
2018-01-28T11:24:21.525Z,1.50
2018-01-28T11:26:24.916Z,1.10
2018-01-28T11:28:28.276Z,1.40
2018-01-28T11:30:32.445Z,1.43
2018-01-28T11:32:35.810Z,1.13
2018-01-28T11:34:39.166Z,1.10
2018-01-28T11:36:43.314Z,1.63
2018-01-28T11:38:46.672Z,1.20
2018-01-28T11:40:50.909Z,0.80
2018-01-28T11:42:54.267Z,1.10
2018-01-28T11:44:58.390Z,1.50
2018-01-28T11:47:01.775Z,1.20
2018-01-28T11:49:05.905Z,1.30
2018-01-28T11:51:09.292Z,1.30
2018-01-28T11:53:12.665Z,1.10
2018-01-28T11:55:16.791Z,1.50
2018-01-28T11:57:20.170Z,0.90
2018-01-28T11:59:24.299Z,0.93
2018-01-28T12:01:27.701Z,1.20
2018-01-28T12:03:31.068Z,1.40
2018-01-28T12:05:35.229Z,0.90
2018-01-28T12:07:38.621Z,1.53
2018-01-28T12:09:42.744Z,1.20
2018-01-28T12:11:46.108Z,1.50
2018-01-28T12:13:49.493Z,1.07
2018-01-28T12:15:52.861Z,1.20
2018-01-28T12:17:56.257Z,1.43
2018-01-28T12:19:59.625Z,1.33
2018-01-28T12:22:03.749Z,1.20
2018-01-28T12:24:07.912Z,1.53
2018-01-28T12:26:11.271Z,1.33
2018-01-28T12:28:14.663Z,1.40
2018-01-28T12:30:18.029Z,1.20
2018-01-28T12:32:21.954Z,1.10
2018-01-28T12:34:25.158Z,0.77
2018-01-28T12:36:28.517Z,1.30
2018-01-28T12:38:32.673Z,1.17
2018-01-28T12:40:36.066Z,1.10
2018-01-28T12:42:39.435Z,1.10
2018-01-28T12:44:42.825Z,1.20
2018-01-28T12:46:46.195Z,0.80
2018-01-28T12:48:50.326Z,0.83
2018-01-28T12:50:53.742Z,1.13
2018-01-28T12:52:57.113Z,1.00
2018-01-28T12:55:00.506Z,1.10
2018-01-28T12:57:03.890Z,1.13
2018-01-28T12:59:07.296Z,0.90
2018-01-28T13:01:10.215Z,1.43
2018-01-28T13:03:13.573Z,1.20
2018-01-28T13:05:17.320Z,1.10
2018-01-28T13:07:20.718Z,1.30
2018-01-28T13:09:24.564Z,1.37
2018-01-28T13:11:27.940Z,3.60
2018-01-28T13:13:31.341Z,2.20
2018-01-28T13:15:34.855Z,2.47
2018-01-28T13:17:38.640Z,1.20
2018-01-28T13:19:42.316Z,2.13
2018-01-28T13:21:45.809Z,1.30
2018-01-28T13:23:49.569Z,1.10
2018-01-28T13:25:52.957Z,2.90
2018-01-28T13:27:56.461Z,1.07
2018-01-28T13:29:59.837Z,0.80
2018-01-28T13:32:03.322Z,2.20
2018-01-28T13:34:06.219Z,1.00
2018-01-28T13:36:10.449Z,2.37
2018-01-28T13:38:15.814Z,1.80
2018-01-28T13:40:23.072Z,1.00
2018-01-28T13:42:28.379Z,1.20
2018-01-28T13:44:35.356Z,1.20
2018-01-28T13:46:39.641Z,0.90
2018-01-28T13:48:43.212Z,1.13
2018-01-28T13:50:47.662Z,1.00
2018-01-28T13:52:51.583Z,1.00
2018-01-28T13:54:55.269Z,0.90
2018-01-28T13:56:59.564Z,1.17
2018-01-28T13:59:03.035Z,0.97
2018-01-28T14:01:07.083Z,1.10
2018-01-28T14:03:10.483Z,1.03
2018-01-28T14:05:14.091Z,1.37
2018-01-28T14:07:17.697Z,1.03
2018-01-28T14:09:21.193Z,1.00
2018-01-28T14:11:24.574Z,1.80
2018-01-28T14:13:28.006Z,0.77
2018-01-28T14:15:31.407Z,1.10
2018-01-28T14:17:34.962Z,1.03
2018-01-28T14:19:38.490Z,0.60
2018-01-28T14:21:43.180Z,1.07
2018-01-28T14:23:46.645Z,1.00
2018-01-28T14:25:50.217Z,0.80
2018-01-28T14:27:53.294Z,1.00
2018-01-28T14:29:56.665Z,0.97
2018-01-28T14:31:59.842Z,1.03
2018-01-28T14:34:03.585Z,1.00
2018-01-28T14:36:07.014Z,1.13
2018-01-28T14:38:10.445Z,0.80
2018-01-28T14:40:13.654Z,0.80
2018-01-28T14:42:17.779Z,1.20
2018-01-28T14:44:21.788Z,1.10
2018-01-28T14:46:25.090Z,1.10
2018-01-28T14:48:28.418Z,1.07
2018-01-28T14:50:33.198Z,0.97
2018-01-28T14:52:36.662Z,0.80
2018-01-28T14:54:39.946Z,0.97
2018-01-28T14:56:44.359Z,0.90
2018-01-28T14:58:47.877Z,0.80
2018-01-28T15:00:52.140Z,1.10
2018-01-28T15:02:55.666Z,0.77
2018-01-28T15:04:59.942Z,2.00
2018-01-28T15:07:04.284Z,1.93
2018-01-28T15:09:07.858Z,1.47
2018-01-28T15:11:11.256Z,1.03
2018-01-28T15:13:14.747Z,1.50
2018-01-28T15:15:18.963Z,3.37
2018-01-28T15:17:22.284Z,0.80
2018-01-28T15:19:26.169Z,1.30
2018-01-28T15:21:29.906Z,3.83
2018-01-28T15:23:33.374Z,1.30
2018-01-28T15:25:37.468Z,1.27
2018-01-28T15:27:41.021Z,1.67
2018-01-28T15:29:44.455Z,1.10
2018-01-28T15:31:47.846Z,1.10
2018-01-28T15:33:52.032Z,1.37
2018-01-28T15:35:57.809Z,0.90
2018-01-28T15:38:04.407Z,1.33
2018-01-28T15:40:09.868Z,1.00
2018-01-28T15:42:13.286Z,0.80
2018-01-28T15:44:16.701Z,0.80
2018-01-28T15:46:20.121Z,1.00
2018-01-28T15:48:23.542Z,1.10
2018-01-28T15:50:26.717Z,1.63
2018-01-28T15:52:30.742Z,1.77
2018-01-28T15:54:34.007Z,1.00
2018-01-28T15:56:38.164Z,0.97
2018-01-28T15:58:41.592Z,1.83
2018-01-28T16:00:45.212Z,1.90
2018-01-28T16:02:49.407Z,1.27
2018-01-28T16:04:53.381Z,1.40
2018-01-28T16:06:56.792Z,1.20
2018-01-28T16:09:00.213Z,0.80
2018-01-28T16:11:04.366Z,1.97
2018-01-28T16:13:07.830Z,3.23
2018-01-28T16:15:11.216Z,2.60
2018-01-28T16:17:15.413Z,11.67
2018-01-28T16:19:19.315Z,3.67
2018-01-28T16:21:22.732Z,0.70
2018-01-28T16:23:27.246Z,1.53
2018-01-28T16:25:31.072Z,1.00
2018-01-28T16:27:34.788Z,1.67
2018-01-28T16:29:39.025Z,2.27
2018-01-28T16:31:42.410Z,2.23
2018-01-28T16:33:45.804Z,2.30
2018-01-28T16:35:49.216Z,1.60
2018-01-28T16:37:52.656Z,0.90
2018-01-28T16:39:57.308Z,2.13
2018-01-28T16:42:00.877Z,1.00
2018-01-28T16:44:04.618Z,0.97
2018-01-28T16:46:07.976Z,1.07
2018-01-28T16:48:12.287Z,1.10
2018-01-28T16:50:16.487Z,1.70
2018-01-28T16:52:19.963Z,1.47
2018-01-28T16:54:23.378Z,2.10
2018-01-28T16:56:26.543Z,0.77
2018-01-28T16:58:31.002Z,0.73
2018-01-28T17:00:35.008Z,2.97
2018-01-28T17:02:38.482Z,0.73
2018-01-28T17:04:42.110Z,1.37
2018-01-28T17:06:45.662Z,1.73
2018-01-28T17:08:50.149Z,0.70
2018-01-28T17:10:55.038Z,1.77
2018-01-28T17:12:58.362Z,2.80
2018-01-28T17:15:01.823Z,2.50
2018-01-28T17:17:05.489Z,0.80
2018-01-28T17:19:08.955Z,0.70
2018-01-28T17:21:12.345Z,0.93
2018-01-28T17:23:15.722Z,1.73
2018-01-28T17:25:19.134Z,0.93
2018-01-28T17:27:22.496Z,1.23
2018-01-28T17:29:25.741Z,1.13
2018-01-28T17:31:29.202Z,0.73
2018-01-28T17:33:32.564Z,1.07
2018-01-28T17:35:41.416Z,1.00
2018-01-28T17:37:44.819Z,0.77
2018-01-28T17:39:49.440Z,1.30
2018-01-28T17:41:53.235Z,1.03
2018-01-28T17:43:57.714Z,1.73
2018-01-28T17:46:02.347Z,3.27
2018-01-28T17:48:05.858Z,1.83
2018-01-28T17:50:09.547Z,2.87
2018-01-28T17:52:12.961Z,3.70
2018-01-28T17:54:16.576Z,1.93
2018-01-28T17:56:21.212Z,1.10
2018-01-28T17:58:24.850Z,2.63
2018-01-28T18:00:28.301Z,1.10
2018-01-28T18:02:31.763Z,3.97
2018-01-28T18:04:35.150Z,1.50
2018-01-28T18:06:38.710Z,1.23
2018-01-28T18:08:42.072Z,1.00
2018-01-28T18:10:45.690Z,0.70
2018-01-28T18:12:49.069Z,1.23
2018-01-28T18:14:52.440Z,1.30
2018-01-28T18:16:56.653Z,1.50
2018-01-28T18:19:00.823Z,4.17
2018-01-28T18:21:04.442Z,1.50
2018-01-28T18:23:07.832Z,1.43
2018-01-28T18:25:11.324Z,1.10
2018-01-28T18:27:15.170Z,2.13
2018-01-28T18:29:18.964Z,1.70
2018-01-28T18:31:23.483Z,2.60
2018-01-28T18:33:27.983Z,1.47
2018-01-28T18:35:32.864Z,1.00
2018-01-28T18:37:36.792Z,1.70
2018-01-28T18:39:40.728Z,1.00
2018-01-28T18:41:44.349Z,1.80
2018-01-28T18:43:48.775Z,0.90
2018-01-28T18:45:53.553Z,1.10
2018-01-28T18:47:57.708Z,1.97
2018-01-28T18:50:01.916Z,1.00
2018-01-28T18:52:06.648Z,2.40
2018-01-28T18:54:10.871Z,1.50
2018-01-28T18:56:14.417Z,0.87
2018-01-28T18:58:18.594Z,1.53
2018-01-28T19:00:22.017Z,1.17
2018-01-28T19:02:25.572Z,1.57
2018-01-28T19:04:29.081Z,3.60
2018-01-28T19:06:32.495Z,1.10
2018-01-28T19:08:35.927Z,1.10
2018-01-28T19:10:39.289Z,1.47
2018-01-28T19:12:43.518Z,0.93
2018-01-28T19:14:47.018Z,0.80
2018-01-28T19:16:50.465Z,1.07
2018-01-28T19:18:53.845Z,2.13
2018-01-28T19:20:57.277Z,2.63
2018-01-28T19:23:00.770Z,1.10
2018-01-28T19:25:05.010Z,1.03
2018-01-28T19:27:08.421Z,1.30
2018-01-28T19:29:11.812Z,2.13
2018-01-28T19:31:15.350Z,2.20
2018-01-28T19:33:18.766Z,1.00
2018-01-28T19:35:22.909Z,0.87
2018-01-28T19:37:26.347Z,1.17
2018-01-28T19:39:29.856Z,1.20
2018-01-28T19:41:34.040Z,1.17
2018-01-28T19:43:37.451Z,1.60
2018-01-28T19:45:40.893Z,1.30
2018-01-28T19:47:44.362Z,0.87
2018-01-28T19:49:47.769Z,1.07
2018-01-28T19:51:51.195Z,1.50
2018-01-28T19:53:54.611Z,1.00
2018-01-28T19:55:58.035Z,1.40
2018-01-28T19:58:02.213Z,2.30
2018-01-28T20:00:05.339Z,1.07
2018-01-28T20:02:09.959Z,1.40
2018-01-28T20:04:14.952Z,1.10
2018-01-28T20:06:21.107Z,1.10
2018-01-28T20:08:26.007Z,1.07
2018-01-28T20:10:29.637Z,1.43
2018-01-28T20:12:32.996Z,1.00
2018-01-28T20:14:36.435Z,1.00
2018-01-28T20:16:41.035Z,1.50
2018-01-28T20:18:44.444Z,1.10
2018-01-28T20:20:47.607Z,1.03
2018-01-28T20:22:50.973Z,1.33
2018-01-28T20:24:54.340Z,1.10
2018-01-28T20:26:57.693Z,1.30
2018-01-28T20:29:01.097Z,0.93
2018-01-28T20:31:04.458Z,1.13
2018-01-28T20:33:07.864Z,1.63
2018-01-28T20:35:11.388Z,1.63
2018-01-28T20:37:15.499Z,1.33
2018-01-28T20:39:19.479Z,1.10
2018-01-28T20:41:22.832Z,1.17
2018-01-28T20:43:26.184Z,1.30
2018-01-28T20:45:30.368Z,0.83
2018-01-28T20:47:33.741Z,1.03
2018-01-28T20:49:37.135Z,1.40
2018-01-28T20:51:40.501Z,0.73
2018-01-28T20:53:44.208Z,1.27
2018-01-28T20:55:48.018Z,1.43
2018-01-28T20:57:51.678Z,1.13
2018-01-28T20:59:55.077Z,1.10
2018-01-28T21:01:59.236Z,2.07
2018-01-28T21:04:02.593Z,0.80
2018-01-28T21:06:06.409Z,1.57
2018-01-28T21:08:09.768Z,1.10
2018-01-28T21:10:13.881Z,1.20
2018-01-28T21:12:18.009Z,1.07
2018-01-28T21:14:21.372Z,1.17
2018-01-28T21:16:25.501Z,1.63
2018-01-28T21:18:28.854Z,1.03
2018-01-28T21:20:32.244Z,1.10
2018-01-28T21:22:35.664Z,1.10
2018-01-28T21:24:39.805Z,1.10
2018-01-28T21:26:43.183Z,1.00
2018-01-28T21:28:46.544Z,0.77
2018-01-28T21:30:49.955Z,0.97
2018-01-28T21:32:54.079Z,1.63
2018-01-28T21:34:57.447Z,1.40
2018-01-28T21:37:01.582Z,1.53
2018-01-28T21:39:04.515Z,0.80
2018-01-28T21:41:07.907Z,1.10
2018-01-28T21:43:11.282Z,1.07
2018-01-28T21:45:14.645Z,1.00
2018-01-28T21:47:18.032Z,0.80
2018-01-28T21:49:21.385Z,0.70
2018-01-28T21:51:24.569Z,1.03
2018-01-28T21:53:27.924Z,1.33
2018-01-28T21:55:31.270Z,1.60
2018-01-28T21:57:35.419Z,0.80
2018-01-28T21:59:38.971Z,1.10
2018-01-28T22:01:43.104Z,1.00
2018-01-28T22:03:46.462Z,1.00
2018-01-28T22:05:50.093Z,1.03
2018-01-28T22:07:54.256Z,1.43
2018-01-28T22:09:57.635Z,0.97
2018-01-28T22:12:01.014Z,0.93
2018-01-28T22:14:04.399Z,0.70
2018-01-28T22:16:07.761Z,0.97
2018-01-28T22:18:11.913Z,0.93
2018-01-28T22:20:15.278Z,1.30
2018-01-28T22:22:18.640Z,1.10
2018-01-28T22:24:21.989Z,0.93
2018-01-28T22:26:25.345Z,1.43
2018-01-28T22:28:28.736Z,1.10
2018-01-28T22:30:32.111Z,0.80
2018-01-28T22:32:36.689Z,1.00
2018-01-28T22:34:40.087Z,0.80
2018-01-28T22:36:43.447Z,0.70
2018-01-28T22:38:47.148Z,0.90
2018-01-28T22:40:50.839Z,0.83
2018-01-28T22:42:54.224Z,0.97
2018-01-28T22:44:57.404Z,1.13
2018-01-28T22:47:01.545Z,0.80
2018-01-28T22:49:04.968Z,0.80
2018-01-28T22:51:07.853Z,0.60
2018-01-28T22:53:11.379Z,0.67
2018-01-28T22:55:15.764Z,0.70
2018-01-28T22:57:19.234Z,0.70
2018-01-28T22:59:22.632Z,0.77
2018-01-28T23:01:25.816Z,0.77
2018-01-28T23:03:29.254Z,0.80
2018-01-28T23:05:33.502Z,1.00
2018-01-28T23:07:37.041Z,0.50
2018-01-28T23:09:40.405Z,0.60
2018-01-28T23:11:43.777Z,0.50
2018-01-28T23:13:47.141Z,0.60
2018-01-28T23:15:51.291Z,0.50
2018-01-28T23:17:54.649Z,0.60
2018-01-28T23:19:58.771Z,1.00
2018-01-28T23:22:02.289Z,0.60
2018-01-28T23:24:05.644Z,0.80
2018-01-28T23:26:09.779Z,1.03
2018-01-28T23:28:14.504Z,0.70
2018-01-28T23:30:17.895Z,1.13
2018-01-28T23:32:22.209Z,1.67
2018-01-28T23:34:25.873Z,0.83
2018-01-28T23:36:30.026Z,0.60
2018-01-28T23:38:33.394Z,1.03
2018-01-28T23:40:37.025Z,0.90
2018-01-28T23:42:40.381Z,0.63
2018-01-28T23:44:45.209Z,0.63
2018-01-28T23:46:48.706Z,1.20
2018-01-28T23:48:52.074Z,0.90
2018-01-28T23:50:56.211Z,0.73
2018-01-28T23:52:59.573Z,0.67
2018-01-28T23:55:03.736Z,0.60
2018-01-28T23:57:06.936Z,0.83
2018-01-28T23:59:10.280Z,0.70
